Time;durP1;ratioP1;P1;durP2;ratioP2;P2;SDS_P1;SDS_P2;PMS_P1;PMS_P2;Temp;Humidity;BMP_temperature;BMP_pressure;BME280_temperature;BME280_humidity;BME280_pressure;Samples;Min_cycle;Max_cycle;Signal;HPM_P1;HPM_P2
2023/12/30 00:02:07;;;;;;;2.38;1.92;;;;;;;;;;5062205;28;20028;-58
2023/12/30 00:04:33;;;;;;;2.40;1.50;;;;;;;;;;5037010;28;20055;-58
2023/12/30 00:07:00;;;;;;;1.50;1.30;;;;;;;;;;5042396;28;20048;-57
2023/12/30 00:09:26;;;;;;;2.17;1.40;;;;;;;;;;5039146;28;20047;-57
2023/12/30 00:11:53;;;;;;;2.30;1.25;;;;;;;;;;5044421;28;20029;-61
2023/12/30 00:14:19;;;;;;;2.78;1.60;;;;;;;;;;5045449;28;20036;-61
2023/12/30 00:16:46;;;;;;;3.05;1.77;;;;;;;;;;5048735;28;20041;-59
2023/12/30 00:19:12;;;;;;;2.28;1.42;;;;;;;;;;5051580;28;20055;-58
2023/12/30 00:21:38;;;;;;;1.98;1.52;;;;;;;;;;5048933;28;20056;-60
2023/12/30 00:24:05;;;;;;;10.20;4.90;;;;;;;;;;5050894;28;20440;-61
2023/12/30 00:26:31;;;;;;;8.65;3.90;;;;;;;;;;5046628;28;20523;-59
2023/12/30 00:29:11;;;;;;;4.37;2.77;;;;;;;;;;5051000;28;20041;-58
2023/12/30 00:31:38;;;;;;;3.72;2.28;;;;;;;;;;5045955;28;20045;-61
2023/12/30 00:34:04;;;;;;;2.38;1.40;;;;;;;;;;5051306;28;20405;-57
2023/12/30 00:36:30;;;;;;;2.30;1.55;;;;;;;;;;5049469;28;20500;-57
2023/12/30 00:38:56;;;;;;;1.77;1.60;;;;;;;;;;5048375;28;20056;-57
2023/12/30 00:41:24;;;;;;;1.70;1.40;;;;;;;;;;5050830;28;20037;-60
2023/12/30 00:43:50;;;;;;;2.75;1.50;;;;;;;;;;5053940;28;20033;-58
2023/12/30 00:46:19;;;;;;;1.67;1.20;;;;;;;;;;5048682;28;20056;-59
2023/12/30 00:48:46;;;;;;;3.03;1.23;;;;;;;;;;5052230;28;20043;-61
2023/12/30 00:51:12;;;;;;;2.75;1.50;;;;;;;;;;5069741;28;20049;-58
2023/12/30 00:53:38;;;;;;;2.50;1.70;;;;;;;;;;5048418;28;20051;-57
2023/12/30 00:56:04;;;;;;;1.83;1.50;;;;;;;;;;5046367;28;20045;-59
2023/12/30 00:58:30;;;;;;;2.70;1.73;;;;;;;;;;5044182;28;20051;-59
2023/12/30 01:00:57;;;;;;;2.65;1.42;;;;;;;;;;5036452;28;20041;-57
2023/12/30 01:03:23;;;;;;;1.70;1.35;;;;;;;;;;5042874;28;20390;-61
2023/12/30 01:05:50;;;;;;;2.35;1.38;;;;;;;;;;5046863;28;20049;-59
2023/12/30 01:08:16;;;;;;;1.83;1.45;;;;;;;;;;5048242;28;20057;-59
2023/12/30 01:10:42;;;;;;;2.35;1.30;;;;;;;;;;5046417;28;20060;-59
2023/12/30 01:13:09;;;;;;;2.97;1.30;;;;;;;;;;5049147;28;20048;-59
2023/12/30 01:15:35;;;;;;;1.77;1.50;;;;;;;;;;5051209;28;20318;-60
2023/12/30 01:18:03;;;;;;;2.08;1.40;;;;;;;;;;5050779;28;20075;-59
2023/12/30 01:20:30;;;;;;;1.75;1.30;;;;;;;;;;5044659;28;20037;-59
2023/12/30 01:22:56;;;;;;;1.70;1.38;;;;;;;;;;5048644;28;20436;-57
2023/12/30 01:25:22;;;;;;;3.03;1.27;;;;;;;;;;5046254;28;20040;-56
2023/12/30 01:27:48;;;;;;;2.30;1.60;;;;;;;;;;5047815;28;20048;-57
2023/12/30 01:30:15;;;;;;;1.75;1.27;;;;;;;;;;5051413;28;20025;-59
2023/12/30 01:32:41;;;;;;;2.30;1.52;;;;;;;;;;5050632;28;20036;-61
2023/12/30 01:35:07;;;;;;;4.25;2.25;;;;;;;;;;5054609;28;20056;-61
2023/12/30 01:37:34;;;;;;;3.60;1.60;;;;;;;;;;5050005;28;20036;-60
2023/12/30 01:40:00;;;;;;;4.70;1.90;;;;;;;;;;5047442;28;20050;-59
2023/12/30 01:42:27;;;;;;;2.05;1.67;;;;;;;;;;5047706;28;20049;-59
2023/12/30 01:44:53;;;;;;;2.88;1.40;;;;;;;;;;5051829;28;20045;-59
2023/12/30 01:47:19;;;;;;;2.20;1.58;;;;;;;;;;5052318;28;20044;-59
2023/12/30 01:49:46;;;;;;;2.67;1.38;;;;;;;;;;5051874;28;20044;-59
2023/12/30 01:52:12;;;;;;;1.58;1.33;;;;;;;;;;5051055;28;20053;-59
2023/12/30 01:54:40;;;;;;;3.05;1.75;;;;;;;;;;5049939;28;20041;-56
2023/12/30 01:57:08;;;;;;;1.65;1.35;;;;;;;;;;5046952;28;20403;-59
2023/12/30 01:59:35;;;;;;;2.70;1.70;;;;;;;;;;5044272;28;20063;-59
2023/12/30 02:02:01;;;;;;;1.88;1.63;;;;;;;;;;5046837;28;20036;-59
2023/12/30 02:04:28;;;;;;;2.35;1.40;;;;;;;;;;5043395;28;20045;-59
2023/12/30 02:06:54;;;;;;;3.35;1.52;;;;;;;;;;5047946;28;20056;-60
2023/12/30 02:09:21;;;;;;;1.98;1.38;;;;;;;;;;5050062;28;20048;-61
2023/12/30 02:11:48;;;;;;;2.85;1.40;;;;;;;;;;5049389;28;20029;-59
2023/12/30 02:14:29;;;;;;;2.25;1.38;;;;;;;;;;5049541;28;20534;-61
2023/12/30 02:16:55;;;;;;;2.47;1.63;;;;;;;;;;5042866;28;20064;-59
2023/12/30 02:19:22;;;;;;;2.15;1.60;;;;;;;;;;5052294;28;20048;-62
2023/12/30 02:21:50;;;;;;;3.00;1.50;;;;;;;;;;5048610;28;20041;-61
2023/12/30 02:24:16;;;;;;;1.60;1.38;;;;;;;;;;5048886;28;20655;-59
2023/12/30 02:26:42;;;;;;;1.80;1.30;;;;;;;;;;5048246;28;20029;-61
2023/12/30 02:29:09;;;;;;;2.15;1.40;;;;;;;;;;5048184;28;20431;-60
2023/12/30 02:31:46;;;;;;;3.90;2.10;;;;;;;;;;5048013;28;20041;-59
2023/12/30 02:34:15;;;;;;;1.98;1.60;;;;;;;;;;5048303;28;20215;-60
2023/12/30 02:36:42;;;;;;;1.77;1.50;;;;;;;;;;5046448;28;20108;-60
2023/12/30 02:39:08;;;;;;;2.83;1.63;;;;;;;;;;5047784;28;20449;-60
2023/12/30 02:41:34;;;;;;;3.42;1.60;;;;;;;;;;5048553;28;20051;-60
2023/12/30 02:44:01;;;;;;;3.35;1.50;;;;;;;;;;5047701;28;20037;-61
2023/12/30 02:46:27;;;;;;;3.30;1.55;;;;;;;;;;5048078;28;20048;-58
2023/12/30 02:48:53;;;;;;;2.92;1.65;;;;;;;;;;5043083;28;20048;-59
2023/12/30 02:51:20;;;;;;;2.33;1.60;;;;;;;;;;5047315;28;20036;-60
2023/12/30 02:53:47;;;;;;;2.67;1.27;;;;;;;;;;5042767;28;20509;-58
2023/12/30 02:56:21;;;;;;;1.85;1.30;;;;;;;;;;5045293;28;20048;-59
2023/12/30 02:59:04;;;;;;;3.75;1.40;;;;;;;;;;5036112;28;20421;-59
2023/12/30 03:01:31;;;;;;;2.10;1.17;;;;;;;;;;5040950;28;20045;-61
2023/12/30 03:03:59;;;;;;;1.88;1.48;;;;;;;;;;5049603;22;20050;-54
2023/12/30 03:06:26;;;;;;;2.28;1.30;;;;;;;;;;5028615;28;20405;-55
2023/12/30 03:08:53;;;;;;;1.35;1.10;;;;;;;;;;5032423;28;20034;-57
2023/12/30 03:11:20;;;;;;;1.65;1.30;;;;;;;;;;5028163;28;20071;-56
2023/12/30 03:13:46;;;;;;;1.80;1.20;;;;;;;;;;5030222;28;20053;-55
2023/12/30 03:16:16;;;;;;;2.47;1.35;;;;;;;;;;5027595;28;20509;-56
2023/12/30 03:18:42;;;;;;;;;;;;;;;;;;5029857;28;20044;-57
2023/12/30 03:21:10;;;;;;;1.60;1.13;;;;;;;;;;5031482;28;20423;-58
2023/12/30 03:23:37;;;;;;;1.77;1.10;;;;;;;;;;5030087;28;20538;-56
2023/12/30 03:26:04;;;;;;;2.63;1.17;;;;;;;;;;5029505;28;20045;-59
2023/12/30 03:28:31;;;;;;;1.60;1.10;;;;;;;;;;5027225;28;20046;-55
2023/12/30 03:30:57;;;;;;;2.10;1.13;;;;;;;;;;5011013;28;20029;-60
2023/12/30 03:33:24;;;;;;;1.77;1.20;;;;;;;;;;5030679;28;20509;-58
2023/12/30 03:35:52;;;;;;;2.53;1.15;;;;;;;;;;5030747;28;20508;-60
2023/12/30 03:38:19;;;;;;;1.70;1.08;;;;;;;;;;5029401;28;20045;-58
2023/12/30 03:40:46;;;;;;;1.30;1.00;;;;;;;;;;5027940;28;20412;-58
2023/12/30 03:43:13;;;;;;;1.85;1.23;;;;;;;;;;5032250;28;20440;-56
2023/12/30 03:45:39;;;;;;;2.10;1.00;;;;;;;;;;5029966;28;20064;-60
2023/12/30 03:48:06;;;;;;;2.13;1.00;;;;;;;;;;5035566;28;20038;-56
2023/12/30 03:50:32;;;;;;;1.65;1.30;;;;;;;;;;5032282;28;20598;-55
2023/12/30 03:52:58;;;;;;;3.33;0.95;;;;;;;;;;5031934;28;20033;-58
2023/12/30 03:55:24;;;;;;;4.70;1.00;;;;;;;;;;5033943;28;20037;-60
2023/12/30 03:57:50;;;;;;;1.38;1.00;;;;;;;;;;5024242;28;20049;-60
2023/12/30 04:00:16;;;;;;;1.63;1.10;;;;;;;;;;5028749;28;20050;-59
2023/12/30 04:02:43;;;;;;;2.97;1.15;;;;;;;;;;5030704;28;20045;-56
2023/12/30 04:05:10;;;;;;;3.50;0.93;;;;;;;;;;5027875;28;20385;-58
2023/12/30 04:07:36;;;;;;;1.35;0.90;;;;;;;;;;5032558;28;20041;-54
2023/12/30 04:10:03;;;;;;;4.70;1.10;;;;;;;;;;5014945;28;20519;-58
2023/12/30 04:12:30;;;;;;;2.92;1.00;;;;;;;;;;5030956;28;20515;-56
2023/12/30 04:14:56;;;;;;;2.85;0.85;;;;;;;;;;5031338;28;20408;-56
2023/12/30 04:17:23;;;;;;;2.20;0.85;;;;;;;;;;5034587;28;20052;-58
2023/12/30 04:19:49;;;;;;;0.70;0.63;;;;;;;;;;5034003;28;20049;-56
2023/12/30 04:22:15;;;;;;;1.90;0.98;;;;;;;;;;5033633;28;20037;-57
2023/12/30 04:24:41;;;;;;;4.30;0.70;;;;;;;;;;5031357;28;20049;-55
2023/12/30 04:27:07;;;;;;;2.17;0.85;;;;;;;;;;5035809;28;20046;-55
2023/12/30 04:29:33;;;;;;;6.78;1.65;;;;;;;;;;5032721;28;20540;-60
2023/12/30 04:31:59;;;;;;;1.77;0.90;;;;;;;;;;5033118;28;20041;-60
2023/12/30 04:34:26;;;;;;;1.33;0.90;;;;;;;;;;5035942;28;20053;-58
2023/12/30 04:36:52;;;;;;;2.17;1.00;;;;;;;;;;5031798;28;20040;-56
2023/12/30 04:39:18;;;;;;;3.13;1.10;;;;;;;;;;5034484;28;20037;-57
2023/12/30 04:41:44;;;;;;;1.50;0.70;;;;;;;;;;5032294;28;20045;-55
2023/12/30 04:44:10;;;;;;;1.60;0.80;;;;;;;;;;5033633;28;20042;-56
2023/12/30 04:46:36;;;;;;;2.60;0.90;;;;;;;;;;5033687;28;20052;-54
2023/12/30 04:49:02;;;;;;;1.08;0.70;;;;;;;;;;5034978;28;20042;-58
2023/12/30 04:51:32;;;;;;;3.25;0.90;;;;;;;;;;5029525;28;20389;-60
2023/12/30 04:53:58;;;;;;;3.13;0.57;;;;;;;;;;5028092;28;20036;-58
2023/12/30 04:56:25;;;;;;;2.35;0.93;;;;;;;;;;5047337;28;20524;-57
2023/12/30 04:58:51;;;;;;;1.27;0.70;;;;;;;;;;5026527;28;20042;-58
2023/12/30 05:01:17;;;;;;;2.05;0.70;;;;;;;;;;5025628;28;20421;-58
2023/12/30 05:03:43;;;;;;;0.73;0.40;;;;;;;;;;5029669;28;20416;-58
2023/12/30 05:06:19;;;;;;;1.75;0.50;;;;;;;;;;5030460;28;20550;-58
2023/12/30 05:08:45;;;;;;;2.13;0.50;;;;;;;;;;5028297;28;20068;-58
2023/12/30 05:11:11;;;;;;;2.08;0.63;;;;;;;;;;5030703;28;21657;-55
2023/12/30 05:13:37;;;;;;;0.52;0.50;;;;;;;;;;5032868;28;20041;-55
2023/12/30 05:16:04;;;;;;;1.55;0.60;;;;;;;;;;5031487;28;20052;-56
2023/12/30 05:18:30;;;;;;;0.70;0.57;;;;;;;;;;5029244;28;20045;-58
2023/12/30 05:20:56;;;;;;;1.00;0.60;;;;;;;;;;5028977;28;20060;-58
2023/12/30 05:23:22;;;;;;;1.30;0.60;;;;;;;;;;5026886;28;20430;-58
2023/12/30 05:25:48;;;;;;;1.58;0.60;;;;;;;;;;5029343;28;20042;-56
2023/12/30 05:28:15;;;;;;;1.55;0.60;;;;;;;;;;5031384;28;20523;-59
2023/12/30 05:30:41;;;;;;;1.98;0.88;;;;;;;;;;5026534;28;20041;-57
2023/12/30 05:33:07;;;;;;;1.50;0.60;;;;;;;;;;5029096;28;20935;-58
2023/12/30 05:35:35;;;;;;;1.95;0.60;;;;;;;;;;5024804;28;20520;-56
2023/12/30 05:38:05;;;;;;;1.13;0.57;;;;;;;;;;5028786;28;20056;-58
2023/12/30 05:40:31;;;;;;;3.03;0.80;;;;;;;;;;5029225;28;20408;-57
2023/12/30 05:42:57;;;;;;;0.73;0.60;;;;;;;;;;5029334;28;20045;-56
2023/12/30 05:45:23;;;;;;;0.80;0.60;;;;;;;;;;5028344;28;20049;-56
2023/12/30 05:47:49;;;;;;;2.70;0.63;;;;;;;;;;5025952;28;20061;-58
2023/12/30 05:50:16;;;;;;;2.05;0.80;;;;;;;;;;5031142;28;20041;-58
2023/12/30 05:52:42;;;;;;;3.80;0.88;;;;;;;;;;5027430;28;20045;-57
2023/12/30 05:55:08;;;;;;;2.10;0.73;;;;;;;;;;5028429;28;20061;-55
2023/12/30 05:57:34;;;;;;;0.70;0.60;;;;;;;;;;5027321;28;20500;-57
2023/12/30 06:00:00;;;;;;;3.90;0.70;;;;;;;;;;5025637;28;20045;-57
2023/12/30 06:02:26;;;;;;;2.88;0.70;;;;;;;;;;5027218;28;20053;-62
2023/12/30 06:04:52;;;;;;;2.38;0.60;;;;;;;;;;5026101;28;20036;-62
2023/12/30 06:07:18;;;;;;;1.38;0.85;;;;;;;;;;5029868;28;20059;-57
2023/12/30 06:09:44;;;;;;;4.75;0.80;;;;;;;;;;5029569;28;20033;-55
2023/12/30 06:12:10;;;;;;;2.00;0.80;;;;;;;;;;5032455;28;20041;-56
2023/12/30 06:14:36;;;;;;;2.17;0.80;;;;;;;;;;5028626;28;20041;-55
2023/12/30 06:17:03;;;;;;;1.50;0.90;;;;;;;;;;5027729;28;20037;-55
2023/12/30 06:19:29;;;;;;;1.95;0.80;;;;;;;;;;5023932;28;20412;-56
2023/12/30 06:21:56;;;;;;;1.95;0.80;;;;;;;;;;5026368;28;20412;-60
2023/12/30 06:24:26;;;;;;;1.98;1.00;;;;;;;;;;5029777;28;20041;-58
2023/12/30 06:26:52;;;;;;;2.10;0.85;;;;;;;;;;5027683;28;20417;-59
2023/12/30 06:29:21;;;;;;;3.85;1.17;;;;;;;;;;5027346;28;20401;-55
2023/12/30 06:31:48;;;;;;;3.70;1.00;;;;;;;;;;5029028;28;20060;-58
2023/12/30 06:34:14;;;;;;;2.67;1.13;;;;;;;;;;5031465;28;20398;-59
2023/12/30 06:36:41;;;;;;;5.72;1.20;;;;;;;;;;5027228;28;20045;-58
2023/12/30 06:39:08;;;;;;;4.85;1.30;;;;;;;;;;5026315;28;20041;-56
2023/12/30 06:41:34;;;;;;;4.78;1.60;;;;;;;;;;5031080;28;20392;-58
2023/12/30 06:44:00;;;;;;;2.70;1.23;;;;;;;;;;5026475;28;20120;-55
2023/12/30 06:46:26;;;;;;;1.90;0.90;;;;;;;;;;5027217;28;20033;-57
2023/12/30 06:48:53;;;;;;;2.13;1.20;;;;;;;;;;5032062;28;20029;-58
2023/12/30 06:51:19;;;;;;;10.10;1.77;;;;;;;;;;5030025;28;20025;-57
2023/12/30 06:53:45;;;;;;;3.22;0.90;;;;;;;;;;5028608;28;20052;-56
2023/12/30 06:56:11;;;;;;;2.70;1.95;;;;;;;;;;5026416;28;20029;-56
2023/12/30 06:58:37;;;;;;;2.38;1.30;;;;;;;;;;5026474;28;20034;-58
2023/12/30 07:01:07;;;;;;;3.65;1.48;;;;;;;;;;5019530;28;20045;-56
2023/12/30 07:03:33;;;;;;;2.60;1.03;;;;;;;;;;5028668;28;20041;-58
2023/12/30 07:05:59;;;;;;;2.03;1.00;;;;;;;;;;5018819;28;20303;-57
2023/12/30 07:08:25;;;;;;;4.22;1.33;;;;;;;;;;5023456;28;20033;-59
2023/12/30 07:10:51;;;;;;;1.00;0.90;;;;;;;;;;5024258;28;20041;-59
2023/12/30 07:13:17;;;;;;;2.42;1.08;;;;;;;;;;5026377;28;20056;-58
2023/12/30 07:15:43;;;;;;;3.05;1.30;;;;;;;;;;5027265;28;20049;-58
2023/12/30 07:18:10;;;;;;;3.42;1.55;;;;;;;;;;5025568;28;20068;-60
2023/12/30 07:20:36;;;;;;;4.03;1.30;;;;;;;;;;5025612;28;20044;-57
2023/12/30 07:23:04;;;;;;;2.92;1.35;;;;;;;;;;5029353;28;20485;-56
2023/12/30 07:25:30;;;;;;;1.98;1.40;;;;;;;;;;5032413;28;20052;-56
2023/12/30 07:27:56;;;;;;;1.58;1.30;;;;;;;;;;5024518;28;20045;-56
2023/12/30 07:30:22;;;;;;;3.17;1.50;;;;;;;;;;5031730;28;20053;-57
2023/12/30 07:32:48;;;;;;;2.80;1.73;;;;;;;;;;5031569;28;20033;-58
2023/12/30 07:35:14;;;;;;;2.35;1.50;;;;;;;;;;5034767;28;20036;-58
2023/12/30 07:37:41;;;;;;;3.70;1.95;;;;;;;;;;5031612;28;20117;-58
2023/12/30 07:40:09;;;;;;;5.30;2.47;;;;;;;;;;5034061;28;20045;-58
2023/12/30 07:42:35;;;;;;;4.90;1.98;;;;;;;;;;5029603;28;20042;-58
2023/12/30 07:45:01;;;;;;;3.28;1.30;;;;;;;;;;5031137;28;20057;-55
2023/12/30 07:47:27;;;;;;;6.70;3.75;;;;;;;;;;5032842;28;20442;-54
2023/12/30 07:49:53;;;;;;;3.33;2.03;;;;;;;;;;5030759;28;20040;-57
2023/12/30 07:52:19;;;;;;;1.90;1.20;;;;;;;;;;5028558;28;20052;-58
2023/12/30 07:54:45;;;;;;;3.70;2.53;;;;;;;;;;5030553;28;20422;-55
2023/12/30 07:57:12;;;;;;;7.57;4.88;;;;;;;;;;5029063;28;20243;-55
2023/12/30 07:59:38;;;;;;;9.57;6.18;;;;;;;;;;5022617;28;20033;-58
2023/12/30 08:02:04;;;;;;;6.97;3.60;;;;;;;;;;5019778;28;20061;-60
2023/12/30 08:04:30;;;;;;;5.10;2.72;;;;;;;;;;5022582;28;20057;-58
2023/12/30 08:06:56;;;;;;;6.50;3.10;;;;;;;;;;5022751;28;20512;-58
2023/12/30 08:09:22;;;;;;;6.68;3.35;;;;;;;;;;5019487;28;20056;-60
2023/12/30 08:11:48;;;;;;;4.25;2.10;;;;;;;;;;5030493;28;20045;-58
2023/12/30 08:14:16;;;;;;;6.53;2.53;;;;;;;;;;5028416;28;20036;-55
2023/12/30 08:16:42;;;;;;;3.20;1.50;;;;;;;;;;5028883;28;20048;-57
2023/12/30 08:19:08;;;;;;;3.22;1.67;;;;;;;;;;5029979;28;20048;-60
2023/12/30 08:21:34;;;;;;;2.83;1.30;;;;;;;;;;5029731;28;20040;-60
2023/12/30 08:24:01;;;;;;;2.17;1.42;;;;;;;;;;5029407;28;20046;-61
2023/12/30 08:26:28;;;;;;;7.85;3.22;;;;;;;;;;5034185;28;20515;-56
2023/12/30 08:28:55;;;;;;;5.00;2.50;;;;;;;;;;5037752;28;20029;-58
2023/12/30 08:31:21;;;;;;;5.28;1.92;;;;;;;;;;5044473;28;20405;-60
2023/12/30 08:33:48;;;;;;;4.10;1.60;;;;;;;;;;5040090;28;20052;-59
2023/12/30 08:36:14;;;;;;;2.72;1.50;;;;;;;;;;5040260;28;20045;-58
2023/12/30 08:38:40;;;;;;;5.15;1.65;;;;;;;;;;5030326;28;20696;-58
2023/12/30 08:41:10;;;;;;;24.60;5.43;;;;;;;;;;5031630;28;20049;-56
2023/12/30 08:43:36;;;;;;;;;;;;;;;;;;5029342;28;20054;-56
2023/12/30 08:46:02;;;;;;;3.10;1.13;;;;;;;;;;5029461;28;19919;-58
2023/12/30 08:48:28;;;;;;;2.65;1.55;;;;;;;;;;5034222;28;20041;-61
2023/12/30 08:50:54;;;;;;;3.17;1.40;;;;;;;;;;5030289;28;20033;-61
2023/12/30 08:53:24;;;;;;;3.17;1.60;;;;;;;;;;5026230;28;20041;-60
2023/12/30 08:55:52;;;;;;;3.53;1.23;;;;;;;;;;5029624;28;20033;-58
2023/12/30 08:58:18;;;;;;;3.20;1.40;;;;;;;;;;5027355;28;20041;-59
2023/12/30 09:00:44;;;;;;;3.97;1.52;;;;;;;;;;5028391;28;20576;-57
2023/12/30 09:03:10;;;;;;;3.80;1.50;;;;;;;;;;5017390;22;1096237;-57
2023/12/30 09:05:37;;;;;;;2.42;1.45;;;;;;;;;;5044730;28;20048;-57
2023/12/30 09:08:04;;;;;;;2.88;1.42;;;;;;;;;;5042217;28;20048;-55
2023/12/30 09:10:31;;;;;;;4.85;1.40;;;;;;;;;;5043789;28;20045;-57
2023/12/30 09:12:58;;;;;;;2.65;1.27;;;;;;;;;;5045145;28;20048;-57
2023/12/30 09:15:25;;;;;;;3.08;1.45;;;;;;;;;;5047379;28;20053;-55
2023/12/30 09:17:52;;;;;;;2.13;0.90;;;;;;;;;;5047518;28;20535;-57
2023/12/30 09:20:18;;;;;;;1.52;1.00;;;;;;;;;;5041518;28;20045;-56
2023/12/30 09:22:44;;;;;;;2.50;0.98;;;;;;;;;;5043687;28;20025;-54
2023/12/30 09:25:10;;;;;;;2.45;1.33;;;;;;;;;;5045691;28;20519;-57
2023/12/30 09:27:36;;;;;;;2.42;1.10;;;;;;;;;;5047386;28;20045;-57
2023/12/30 09:30:03;;;;;;;2.40;1.30;;;;;;;;;;5045214;28;20040;-54
2023/12/30 09:32:30;;;;;;;1.48;1.30;;;;;;;;;;5049625;28;20043;-57
2023/12/30 09:34:56;;;;;;;2.00;1.50;;;;;;;;;;5048566;28;20025;-56
2023/12/30 09:37:22;;;;;;;1.45;1.00;;;;;;;;;;5046785;28;20028;-57
2023/12/30 09:39:48;;;;;;;4.47;1.83;;;;;;;;;;5045726;28;20487;-57
2023/12/30 09:42:14;;;;;;;2.63;1.38;;;;;;;;;;5045022;28;20052;-54
2023/12/30 09:44:41;;;;;;;2.65;1.33;;;;;;;;;;5045475;28;20057;-56
2023/12/30 09:47:10;;;;;;;2.28;1.40;;;;;;;;;;5041241;28;20042;-56
2023/12/30 09:49:37;;;;;;;4.40;1.15;;;;;;;;;;5044926;28;20059;-57
2023/12/30 09:52:06;;;;;;;3.80;1.40;;;;;;;;;;5041609;28;20048;-57
2023/12/30 09:54:36;;;;;;;3.10;1.35;;;;;;;;;;5041250;28;20049;-57
2023/12/30 09:57:02;;;;;;;4.00;2.10;;;;;;;;;;5040909;28;20716;-55
2023/12/30 09:59:37;;;;;;;6.63;3.80;;;;;;;;;;5047586;28;20049;-56
2023/12/30 10:02:06;;;;;;;6.93;1.90;;;;;;;;;;5044397;28;20060;-54
2023/12/30 10:04:33;;;;;;;4.25;2.03;;;;;;;;;;5046710;28;20048;-54
2023/12/30 10:06:59;;;;;;;3.70;1.38;;;;;;;;;;5046982;28;20037;-55
2023/12/30 10:09:25;;;;;;;3.40;1.65;;;;;;;;;;5047187;28;20044;-56
2023/12/30 10:11:51;;;;;;;3.92;1.48;;;;;;;;;;5044231;28;20038;-57
2023/12/30 10:14:18;;;;;;;4.55;2.17;;;;;;;;;;5047733;28;20044;-57
2023/12/30 10:16:44;;;;;;;5.35;2.42;;;;;;;;;;5041407;28;20049;-55
2023/12/30 10:19:13;;;;;;;4.57;1.00;;;;;;;;;;5046964;28;20047;-54
2023/12/30 10:21:40;;;;;;;4.43;1.33;;;;;;;;;;5046755;28;20032;-55
2023/12/30 10:24:06;;;;;;;3.35;1.83;;;;;;;;;;5046650;28;20040;-55
2023/12/30 10:26:37;;;;;;;2.53;1.20;;;;;;;;;;5047559;28;20045;-55
2023/12/30 10:29:05;;;;;;;2.97;1.25;;;;;;;;;;5047372;28;20044;-56
2023/12/30 10:31:31;;;;;;;3.35;1.23;;;;;;;;;;5045205;28;20040;-57
2023/12/30 10:33:58;;;;;;;2.58;1.25;;;;;;;;;;5046557;28;20052;-58
2023/12/30 10:36:27;;;;;;;2.70;1.55;;;;;;;;;;5043101;28;20415;-57
2023/12/30 10:38:54;;;;;;;4.97;1.60;;;;;;;;;;5041662;28;20048;-58
2023/12/30 10:41:20;;;;;;;5.03;1.38;;;;;;;;;;5042171;28;20049;-56
2023/12/30 10:43:49;;;;;;;4.63;1.90;;;;;;;;;;5038363;28;20408;-59
2023/12/30 10:46:18;;;;;;;3.55;1.60;;;;;;;;;;5042655;28;20044;-57
2023/12/30 10:48:49;;;;;;;3.33;1.23;;;;;;;;;;5041275;28;20044;-58
2023/12/30 10:51:22;;;;;;;2.28;1.10;;;;;;;;;;5040673;28;20524;-58
2023/12/30 10:53:57;;;;;;;3.00;1.60;;;;;;;;;;5041735;28;20405;-56
2023/12/30 10:56:28;;;;;;;2.92;1.50;;;;;;;;;;5050217;28;20688;-56
2023/12/30 10:58:59;;;;;;;1.80;1.25;;;;;;;;;;5042617;28;20535;-57
2023/12/30 11:01:25;;;;;;;2.92;1.40;;;;;;;;;;5043545;28;20045;-57
2023/12/30 11:03:53;;;;;;;2.88;1.30;;;;;;;;;;5038836;28;20037;-56
2023/12/30 11:06:30;;;;;;;2.30;1.40;;;;;;;;;;5049129;28;20028;-57
2023/12/30 11:09:05;;;;;;;4.15;2.05;;;;;;;;;;5050083;28;20658;-56
2023/12/30 11:11:31;;;;;;;5.22;2.20;;;;;;;;;;5044178;28;20057;-53
2023/12/30 11:13:58;;;;;;;3.85;1.88;;;;;;;;;;5043748;28;20463;-57
2023/12/30 11:16:24;;;;;;;5.50;2.00;;;;;;;;;;5042795;28;20049;-54
2023/12/30 11:18:55;;;;;;;4.80;1.40;;;;;;;;;;5050715;28;20040;-56
2023/12/30 11:21:46;;;;;;;4.95;1.40;;;;;;;;;;5044738;28;20053;-57
2023/12/30 11:24:15;;;;;;;3.53;1.88;;;;;;;;;;5047144;28;20076;-59
2023/12/30 11:26:42;;;;;;;1.87;1.37;;;;;;;;;;5050890;28;20048;-56
2023/12/30 11:29:25;;;;;;;3.83;1.25;;;;;;;;;;5048595;28;20296;-57
2023/12/30 11:31:53;;;;;;;1.48;0.88;;;;;;;;;;5043195;28;20488;-58
2023/12/30 11:34:19;;;;;;;3.05;1.50;;;;;;;;;;5050524;28;20032;-57
2023/12/30 11:36:47;;;;;;;3.88;1.50;;;;;;;;;;5058466;28;20049;-56
2023/12/30 11:39:31;;;;;;;2.97;1.52;;;;;;;;;;5062722;28;20454;-56
2023/12/30 11:41:59;;;;;;;2.67;1.35;;;;;;;;;;5043444;28;20416;-57
2023/12/30 11:44:25;;;;;;;1.20;0.90;;;;;;;;;;5053282;28;20037;-56
2023/12/30 11:46:51;;;;;;;3.35;1.45;;;;;;;;;;5043965;28;20049;-58
2023/12/30 11:49:21;;;;;;;4.32;2.03;;;;;;;;;;5054806;28;20041;-57
2023/12/30 11:51:48;;;;;;;5.95;1.70;;;;;;;;;;5048589;28;20064;-57
2023/12/30 11:54:15;;;;;;;2.90;1.00;;;;;;;;;;5046920;28;20041;-57
2023/12/30 11:56:42;;;;;;;1.45;0.80;;;;;;;;;;5040147;28;20025;-58
2023/12/30 11:59:09;;;;;;;2.17;0.90;;;;;;;;;;5047952;28;20045;-57
2023/12/30 12:01:35;;;;;;;1.42;0.90;;;;;;;;;;5049234;28;20044;-58
2023/12/30 12:04:01;;;;;;;2.47;1.05;;;;;;;;;;5046762;28;20044;-57
2023/12/30 12:06:27;;;;;;;1.52;0.80;;;;;;;;;;5048365;28;20045;-59
2023/12/30 12:08:53;;;;;;;2.47;0.80;;;;;;;;;;5051656;28;20358;-55
2023/12/30 12:11:19;;;;;;;1.20;0.60;;;;;;;;;;5050759;28;20033;-54
2023/12/30 12:13:46;;;;;;;1.33;0.73;;;;;;;;;;5050995;28;20037;-56
2023/12/30 12:16:12;;;;;;;2.15;0.75;;;;;;;;;;5052686;28;20078;-56
2023/12/30 12:18:40;;;;;;;2.65;1.10;;;;;;;;;;5049618;28;20029;-54
2023/12/30 12:21:13;;;;;;;8.30;2.20;;;;;;;;;;5050428;28;20033;-55
2023/12/30 12:23:43;;;;;;;3.72;1.40;;;;;;;;;;5052311;28;20033;-58
2023/12/30 12:26:10;;;;;;;2.05;1.30;;;;;;;;;;5052548;28;20033;-55
2023/12/30 12:28:36;;;;;;;1.48;0.70;;;;;;;;;;5049220;28;20041;-57
2023/12/30 12:31:02;;;;;;;1.35;0.80;;;;;;;;;;5053502;28;20416;-53
2023/12/30 12:33:28;;;;;;;3.45;1.05;;;;;;;;;;5053690;28;20411;-56
2023/12/30 12:35:55;;;;;;;0.98;0.60;;;;;;;;;;5051892;28;20033;-55
2023/12/30 12:38:21;;;;;;;0.82;0.75;;;;;;;;;;5054760;28;20044;-57
2023/12/30 12:40:47;;;;;;;1.52;0.80;;;;;;;;;;5051776;28;20617;-57
2023/12/30 12:43:13;;;;;;;2.40;0.80;;;;;;;;;;5049611;28;20053;-56
2023/12/30 12:45:39;;;;;;;4.03;0.85;;;;;;;;;;5051279;28;20500;-57
2023/12/30 12:48:06;;;;;;;1.63;0.70;;;;;;;;;;5049347;28;20033;-56
2023/12/30 12:50:32;;;;;;;5.47;1.13;;;;;;;;;;5051006;28;20507;-55
2023/12/30 12:52:58;;;;;;;4.90;0.88;;;;;;;;;;5051897;28;20044;-52
2023/12/30 12:55:24;;;;;;;4.47;0.95;;;;;;;;;;5047042;28;20040;-55
2023/12/30 12:57:50;;;;;;;1.90;0.90;;;;;;;;;;5047353;28;20040;-56
2023/12/30 13:00:18;;;;;;;1.33;0.68;;;;;;;;;;5053399;28;20055;-55
2023/12/30 13:02:45;;;;;;;3.58;0.80;;;;;;;;;;5051856;28;20053;-53
2023/12/30 13:05:13;;;;;;;1.45;0.75;;;;;;;;;;5043700;28;20045;-53
2023/12/30 13:07:41;;;;;;;2.33;0.90;;;;;;;;;;5049794;28;20025;-54
2023/12/30 13:12:47;;;;;;;1.10;0.70;;;;;;;;;;5051068;28;20059;-53
2023/12/30 13:15:19;;;;;;;1.42;0.90;;;;;;;;;;5051499;28;20059;-56
2023/12/30 13:17:46;;;;;;;3.28;1.48;;;;;;;;;;5053538;28;20520;-55
2023/12/30 13:20:16;;;;;;;3.42;1.30;;;;;;;;;;5043823;28;20519;-55
2023/12/30 13:22:43;;;;;;;3.30;1.38;;;;;;;;;;5048078;28;20063;-56
2023/12/30 13:25:09;;;;;;;3.90;1.45;;;;;;;;;;5047973;28;20029;-54
2023/12/30 13:27:36;;;;;;;2.28;1.17;;;;;;;;;;5047939;28;20053;-55
2023/12/30 13:30:03;;;;;;;9.73;4.47;;;;;;;;;;5047667;28;20400;-57
2023/12/30 13:32:31;;;;;;;3.88;1.20;;;;;;;;;;5051004;28;20045;-55
2023/12/30 13:34:57;;;;;;;1.80;1.08;;;;;;;;;;5050437;28;20056;-54
2023/12/30 13:37:24;;;;;;;1.70;1.27;;;;;;;;;;5049889;28;20060;-54
2023/12/30 13:40:01;;;;;;;2.08;1.42;;;;;;;;;;5052219;28;20407;-58
2023/12/30 13:42:29;;;;;;;2.47;1.40;;;;;;;;;;5048336;28;20068;-55
2023/12/30 13:44:57;;;;;;;1.75;1.10;;;;;;;;;;5048680;28;20040;-57
2023/12/30 13:50:18;;;;;;;4.60;2.05;;;;;;;;;;5049209;28;20404;-57
2023/12/30 13:52:46;;;;;;;2.08;1.25;;;;;;;;;;5049093;28;20056;-55
2023/12/30 13:55:17;;;;;;;3.25;1.50;;;;;;;;;;5051042;28;20049;-57
2023/12/30 13:57:45;;;;;;;2.22;1.38;;;;;;;;;;5031665;28;20051;-56
2023/12/30 14:00:13;;;;;;;1.98;1.00;;;;;;;;;;5042450;28;20493;-56
2023/12/30 14:02:40;;;;;;;0.82;0.70;;;;;;;;;;5039965;28;20051;-54
2023/12/30 14:05:28;;;;;;;1.90;0.75;;;;;;;;;;5044854;28;20033;-58
2023/12/30 14:07:55;;;;;;;2.88;1.00;;;;;;;;;;5046653;28;20039;-57
2023/12/30 14:10:25;;;;;;;4.20;1.10;;;;;;;;;;5046697;28;20044;-58
2023/12/30 14:12:59;;;;;;;7.57;1.35;;;;;;;;;;5049759;28;20040;-56
2023/12/30 14:15:25;;;;;;;2.72;0.85;;;;;;;;;;5052652;28;20033;-61
2023/12/30 14:17:51;;;;;;;0.70;0.60;;;;;;;;;;5042344;28;20044;-56
2023/12/30 14:20:17;;;;;;;2.35;1.30;;;;;;;;;;5048173;28;20389;-54
2023/12/30 14:22:43;;;;;;;3.55;1.70;;;;;;;;;;5048931;28;20036;-56
2023/12/30 14:25:11;;;;;;;2.83;1.60;;;;;;;;;;5047762;28;20035;-56
2023/12/30 14:27:40;;;;;;;3.00;0.93;;;;;;;;;;5047674;28;20071;-56
2023/12/30 14:30:07;;;;;;;2.35;1.10;;;;;;;;;;5049329;28;20048;-58
2023/12/30 14:32:33;;;;;;;7.10;1.30;;;;;;;;;;5047501;28;20025;-56
2023/12/30 14:35:00;;;;;;;10.75;8.02;;;;;;;;;;5051690;28;20044;-56
2023/12/30 14:37:27;;;;;;;11.68;9.02;;;;;;;;;;5047533;28;20025;-58
2023/12/30 14:39:53;;;;;;;7.22;5.45;;;;;;;;;;5041592;28;20049;-57
2023/12/30 14:42:20;;;;;;;5.22;3.05;;;;;;;;;;5048851;28;20480;-57
2023/12/30 14:44:46;;;;;;;3.47;2.00;;;;;;;;;;5046228;28;20037;-55
2023/12/30 14:47:12;;;;;;;9.80;5.10;;;;;;;;;;5048749;28;20415;-55
2023/12/30 14:49:38;;;;;;;5.55;3.28;;;;;;;;;;5050362;28;20669;-56